Elk Grove Village, IL

3:24 AM CDT en Octubre 02, 2014 (GMT -0500)
Chicago-Midway | Change Station
CLOSE
Current Station
Aeropuerto
Location: Chicago Midway,
Altura: 623 ft
Estaciones meteorológicas cercanas

Alt 623 ft 41.78 °N, 87.76 °W | Updated 31 minutes ago

Nublado
Nublado
67 ° F
Sensación térmica 67 ° F
N
9
Viento Variable Viento desde Sur

Hoy
Alta -- | Baja -- ° F
--% Posibilidad de precipitaciones
Ayer
Alta -- | Baja -- ° F
Precip. -- pul
6:50 AM 6:31 PM
Cuarto creciente, 56% visible
Presión 29.86 pul
Visibilidad 10.0 Millas
Nubes Muy nublado 8000 ft
Nublado 11000 ft
Punto de rocío 57 ° F
Humedad 70%
Precipitaciones 0.00 pul
Espesor de la nieve No disponible.
UV 0 de una escala de 12
Polen 2.80 de una escala de 12
Ozono Buena
PM2.5 Moderada
Flu Activity No disponible.
METAR KMDW 020753Z 17008KT 10SM -RA BKN080 OVC110 19/14 A2988 RMK RAE18B37 SLP111 P0000 T01940139

More Conditions Fewer Conditions

Presión 29.86 pul
Visibilidad 10.0 Millas
Nubes Muy nublado 8000 ft
Nublado 11000 ft
Punto de rocío 57 ° F
Humedad 70%
Precipitaciones 0.00 pul
Espesor de la nieve No disponible.
UV 0 de una escala de 12
Polen 2.80 de una escala de 12
Ozono Buena
PM2.5 Moderada
Flu Activity No disponible.
METAR KMDW 020753Z 17008KT 10SM -RA BKN080 OVC110 19/14 A2988 RMK RAE18B37 SLP111 P0000 T01940139

More Conditions Fewer Conditions

10-Day Weather Forecast

Almanac

Astronomía

Oct. 02, 2014 Salida Puesta
Hora real 6:50 AM CDT 6:31 PM CDT
Crepúsculo civil 6:22 AM CDT 6:59 PM CDT
Crepúsculo náutico 5:49 AM CDT 7:32 PM CDT
Crepúsculo astronómico 5:17 AM CDT 8:04 PM CDT
Luna 2:43 PM CDT 12:01 AM CDT
Horas de luz 12h 37m
Horas de luz
11h 41m
Tomorrow will be 2m 48s shorter.
Cuarto creciente, 56% of the Moon is Illuminated
Hoy
Cuarto creciente
Oct 8
Luna llena
Oct 15
Cuarto menguante
Oct 23
Nueva
Oct 30
Cuarto creciente

Extremos de hoy

Máximos del estado Bajos del estado

Community

WunderPhotos

Upload Photos

1,758,196 ¡fotos cargadas!

WunderBlogs® & News

By Dr. Jeff Masters
Director of Meteorology, Weather Underground
By Kari Strenfel
Meteorologist, Weather Underground
By Christopher C. Burt
Weather Historian, Weather Underground
October 2, 2014
October 2, 2014
October 2, 2014

Nearby

Calidad del aire

  Calidad del aire Índice AQ Contaminante
Ayer Buena
PM2.5
Ayer Buena
OZONE
Real Moderada
PM2.5
Real Buena
OZONE
Jueves Moderada
PM2.5
Viernes Buena
PM2.5
Sábado Buena
PM2.5

Grosos de nieve

Estación Profundido Altura
No tenemos constancia de nieve nueva.

Actividad de terremotos

Ciudad Distance Mag. Tiempo y dato
No hay informes recientes de la actividad sísmica.
Magnitud mínima muestra es 2,5.

Temperaturas de aguas costeras

Lugar Temperatura
Sin partes meteorológicos de las estaciones

Estaciones meteorológicas cercanas